Weather History for KBIE - January, 2012

Change the Weather History Date:

Wednesday, January 11, 2012

  Actual Average Record
Temperature  
Mean Temperature 32 °F -  
Max Temperature 39 °F 28 °F 59 °F (2006)
Min Temperature 26 °F 9 °F -12 °F (1974)
Degree Days  
Heating Degree Days 32    
Moisture  
Dew Point 26 °F    
Average Humidity 77    
Maximum Humidity 93    
Minimum Humidity 55    
Precipitation  
Precipitation 0.00 in - - ()
Sea Level Pressure  
Sea Level Pressure 29.79 in    
Wind  
Wind Speed 13 mph (NNW)    
Max Wind Speed 39 mph    
Max Gust Speed 45 mph    
Visibility 10 miles    
Events Snow    
Averages and records for this station are not official NWS values.
T = Trace of Precipitation, MM = Missing Value Source: NWS Daily Summary

Daily Weather History Graph

Daily Weather History Graph

Search for Another Location

Airport or City:

Trip Planner

Search our weather history database for the weather conditions in past years. The results will help you decide how hot, cold, wet, or windy it might be!

Date:

Astronomy

Jan. 11, 2012 Rise Set
Actual Time 7:49 AM CST 5:20 PM CST
Civil Twilight 7:19 AM CST 5:50 PM CST
Nautical Twilight 6:45 AM CST 6:24 PM CST
Astronomical Twilight 6:12 AM CST 6:57 PM CST
Moon 8:20 PM CST (1/11) 9:01 AM CST (1/11)
Length of Visible Light 10h 31m
Length of Day
9h 31m
Waning Gibbous, 93% of the Moon is Illuminated
Jan 11
Waning Gibbous
Jan 16
Last Quarter
Jan 23
New
Jan 30
First Quarter
Feb 7
Full

Hourly Weather History & Observations

Time (CST) Temp. Windchill Dew Point Humidity Pressure Visibility Wind Dir Wind Speed Gust Speed Precip Events Conditions
12:15 AM 32.0 °F 28.7 °F 28.4 °F 87% 29.70 in 10.0 mi SSE 3.5 mph - N/A   Clear
12:35 AM 33.8 °F - 28.4 °F 81% 29.69 in 10.0 mi Calm Calm - N/A   Clear
12:55 AM 32.0 °F 27.5 °F 28.4 °F 87% 29.67 in 10.0 mi ESE 4.6 mph - N/A   Clear
1:15 AM 32.0 °F 28.7 °F 28.4 °F 87% 29.67 in 10.0 mi ESE 3.5 mph - N/A   Clear
1:35 AM 32.0 °F - 28.4 °F 87% 29.67 in 10.0 mi Calm Calm - N/A   Clear
1:55 AM 32.0 °F - 26.6 °F 80% 29.66 in 10.0 mi Calm Calm - N/A   Clear
2:15 AM 30.2 °F 26.7 °F 26.6 °F 86% 29.66 in 10.0 mi East 3.5 mph - N/A   Clear
2:35 AM 32.0 °F 28.7 °F 28.4 °F 87% 29.66 in 10.0 mi SE 3.5 mph - N/A   Clear
2:55 AM 32.0 °F - 28.4 °F 87% 29.64 in 10.0 mi Calm Calm - N/A   Clear
3:15 AM 32.0 °F - 28.4 °F 87% 29.64 in 10.0 mi Calm Calm - N/A   Clear
3:35 AM 30.2 °F - 26.6 °F 86% 29.64 in 10.0 mi Calm Calm - N/A   Clear
3:55 AM 30.2 °F - 26.6 °F 86% 29.62 in 10.0 mi Calm Calm - N/A   Clear
4:15 AM 30.2 °F - 26.6 °F 86% 29.62 in 10.0 mi Calm Calm - N/A   Clear
4:35 AM 28.4 °F 24.6 °F 26.6 °F 93% 29.60 in 10.0 mi SE 3.5 mph - N/A   Clear
4:55 AM 26.6 °F - 23.0 °F 86% 29.60 in 10.0 mi Calm Calm - N/A   Clear
5:15 AM 28.4 °F - 24.8 °F 86% 29.61 in 10.0 mi Calm Calm - N/A   Clear
5:35 AM 28.4 °F 22.2 °F 24.8 °F 86% 29.62 in 10.0 mi WSW 5.8 mph - N/A   Clear
5:55 AM 30.2 °F 24.3 °F 28.4 °F 93% 29.62 in 10.0 mi West 5.8 mph - N/A   Clear
6:15 AM 32.0 °F 25.6 °F 28.4 °F 87% 29.63 in 10.0 mi West 6.9 mph - N/A   Clear
6:35 AM 32.0 °F 26.4 °F 28.4 °F 87% 29.64 in 10.0 mi WNW 5.8 mph - N/A   Clear
6:55 AM 33.8 °F 23.2 °F 30.2 °F 87% 29.66 in 10.0 mi NW 17.3 mph - N/A   Clear
7:15 AM 35.6 °F 25.9 °F 30.2 °F 81% 29.66 in 10.0 mi NNW 16.1 mph - N/A   Clear
7:35 AM 35.6 °F 25.9 °F 32.0 °F 87% 29.68 in 10.0 mi NNW 16.1 mph - N/A   Clear
7:55 AM 35.6 °F 25.9 °F 32.0 °F 87% 29.69 in 10.0 mi NNW 16.1 mph - N/A   Clear
8:15 AM 37.4 °F 27.2 °F 33.8 °F 87% 29.71 in 10.0 mi NNW 19.6 mph 27.6 mph N/A   Mostly Cloudy
8:35 AM 39.2 °F 27.6 °F 33.8 °F 81% 29.71 in 10.0 mi NNW 28.8 mph 36.8 mph N/A   Overcast
8:55 AM 39.2 °F 26.6 °F 33.8 °F 81% 29.74 in 10.0 mi North 34.5 mph 43.7 mph N/A   Overcast
9:15 AM 39.2 °F 27.6 °F 32.0 °F 75% 29.75 in 10.0 mi NNW 28.8 mph 33.4 mph N/A   Overcast
9:35 AM 39.2 °F 27.4 °F 32.0 °F 75% 29.76 in 10.0 mi North 29.9 mph 34.5 mph N/A   Overcast
9:55 AM 37.4 °F 26.4 °F 32.0 °F 81% 29.77 in 10.0 mi NNW 23.0 mph 36.8 mph N/A   Overcast
10:15 AM 37.4 °F 25.4 °F 32.0 °F 81% 29.78 in 10.0 mi NNW 27.6 mph 35.7 mph N/A   Overcast
10:35 AM 37.4 °F 26.9 °F 32.0 °F 81% 29.79 in 10.0 mi North 20.7 mph 36.8 mph N/A   Overcast
10:55 AM 37.4 °F 25.6 °F 32.0 °F 81% 29.80 in 10.0 mi North 26.5 mph 38.0 mph N/A   Overcast
11:15 AM 37.4 °F 25.9 °F 32.0 °F 81% 29.80 in 10.0 mi North 25.3 mph 35.7 mph N/A   Overcast
11:35 AM 37.4 °F 25.2 °F 30.2 °F 75% 29.80 in 10.0 mi North 28.8 mph 40.3 mph N/A   Overcast
11:55 AM 37.4 °F 24.0 °F 30.2 °F 75% 29.80 in 10.0 mi North 35.7 mph 43.7 mph N/A   Overcast
12:15 PM 37.4 °F 24.2 °F 30.2 °F 75% 29.81 in 10.0 mi North 34.5 mph 42.6 mph N/A   Overcast
12:35 PM 37.4 °F 25.2 °F 30.2 °F 75% 29.82 in 10.0 mi North 28.8 mph 41.4 mph N/A   Overcast
12:55 PM 37.4 °F 24.6 °F 28.4 °F 70% 29.82 in 10.0 mi North 32.2 mph 43.7 mph N/A   Overcast
1:15 PM 37.4 °F 24.6 °F 28.4 °F 70% 29.83 in 10.0 mi North 32.2 mph 39.1 mph N/A   Overcast
1:35 PM 35.6 °F 23.0 °F 26.6 °F 70% 29.85 in 10.0 mi North 27.6 mph 39.1 mph N/A   Overcast
1:55 PM 33.8 °F 19.6 °F 26.6 °F 75% 29.86 in 10.0 mi North 32.2 mph 39.1 mph N/A   Overcast
2:15 PM 32.0 °F 16.3 °F 26.6 °F 80% 29.88 in 10.0 mi North 36.8 mph 44.9 mph N/A   Overcast
2:35 PM 32.0 °F 17.0 °F 23.0 °F 69% 29.91 in 10.0 mi NNW 33.4 mph 41.4 mph N/A   Overcast
2:55 PM 32.0 °F 16.7 °F 23.0 °F 69% 29.91 in 10.0 mi North 34.5 mph 41.4 mph N/A   Overcast
3:15 PM 30.2 °F 13.5 °F 23.0 °F 75% 29.93 in 2.0 mi NNW 39.1 mph 43.7 mph N/A Snow Light Snow
3:35 PM 30.2 °F 15.2 °F 23.0 °F 75% 29.95 in 2.5 mi NNW 29.9 mph 38.0 mph N/A Snow Light Snow
3:55 PM 28.4 °F 14.4 °F 23.0 °F 80% 29.95 in 2.0 mi NNW 23.0 mph 35.7 mph N/A Snow Light Snow
4:15 PM 30.2 °F 16.5 °F 19.4 °F 64% 29.96 in 10.0 mi NNW 24.2 mph 33.4 mph N/A   Overcast
4:35 PM 30.2 °F 13.7 °F 17.6 °F 60% 29.97 in 10.0 mi NNW 38.0 mph 44.9 mph N/A   Overcast
4:55 PM 28.4 °F 13.0 °F 15.8 °F 59% 29.98 in 10.0 mi North 28.8 mph 38.0 mph N/A   Mostly Cloudy
5:15 PM 28.4 °F 11.6 °F 14.0 °F 55% 29.99 in 10.0 mi NNW 35.7 mph 43.7 mph N/A   Mostly Cloudy
5:35 PM 28.4 °F 12.5 °F 17.6 °F 64% 30.00 in 10.0 mi North 31.1 mph 41.4 mph N/A   Mostly Cloudy
6:15 PM 28.4 °F 12.5 °F 17.6 °F 64% 30.01 in 10.0 mi NNW 31.1 mph 35.7 mph N/A   Overcast
6:35 PM 28.4 °F 13.0 °F 15.8 °F 59% 30.01 in 10.0 mi North 28.8 mph 40.3 mph N/A   Overcast
6:55 PM 28.4 °F 13.5 °F 17.6 °F 64% 30.01 in 10.0 mi North 26.5 mph 32.2 mph N/A   Overcast
7:15 PM 28.4 °F 14.7 °F 17.6 °F 64% 30.01 in 10.0 mi NNW 21.9 mph 33.4 mph N/A   Overcast
7:35 PM 28.4 °F 12.5 °F 17.6 °F 64% 30.01 in 10.0 mi NNW 31.1 mph 39.1 mph N/A   Overcast
7:55 PM 28.4 °F 14.4 °F 14.0 °F 55% 30.01 in 10.0 mi NNW 23.0 mph 36.8 mph N/A   Mostly Cloudy
8:15 PM 26.6 °F 10.6 °F 14.0 °F 59% 30.01 in 10.0 mi NNW 28.8 mph 34.5 mph N/A   Scattered Clouds
8:35 PM 26.6 °F 11.7 °F 14.0 °F 59% 30.02 in 10.0 mi NNW 24.2 mph 31.1 mph N/A   Scattered Clouds
8:55 PM 26.6 °F 11.4 °F 14.0 °F 59% 30.01 in 10.0 mi NNW 25.3 mph 28.8 mph N/A   Mostly Cloudy
9:15 PM 26.6 °F 11.1 °F 14.0 °F 59% 30.01 in 10.0 mi NNW 26.5 mph 33.4 mph N/A   Mostly Cloudy
9:35 PM 26.6 °F 11.1 °F 14.0 °F 59% 30.01 in 10.0 mi NNW 26.5 mph 33.4 mph N/A   Overcast
9:55 PM 26.6 °F 12.0 °F 14.0 °F 59% 30.01 in 10.0 mi NNW 23.0 mph 28.8 mph N/A   Overcast
10:15 PM 26.6 °F 12.0 °F 12.2 °F 55% 30.02 in 10.0 mi North 23.0 mph 33.4 mph N/A   Overcast
10:35 PM 26.6 °F 13.4 °F 12.2 °F 55% 30.01 in 10.0 mi NNW 18.4 mph 28.8 mph N/A   Overcast
10:55 PM 26.6 °F 12.4 °F 14.0 °F 59% 30.01 in 10.0 mi NNW 21.9 mph 25.3 mph N/A   Overcast
11:15 PM 26.6 °F 12.4 °F 14.0 °F 59% 30.00 in 10.0 mi NNW 21.9 mph 27.6 mph N/A Snow Light Snow
11:35 PM 24.8 °F 9.3 °F 12.2 °F 59% 30.00 in 10.0 mi NNW 24.2 mph 32.2 mph N/A Snow Light Snow
11:55 PM 23.0 °F 6.9 °F 12.2 °F 63% 30.00 in 10.0 mi NNW 24.2 mph 32.2 mph N/A   Overcast